FMI weather

Kalemie Airport
Katanga Province, Congo (Kinshasa)

Public forecast

Using degrees Celsius for public forecast. Weather courtesy of forecast.io.

Closest aviation weather report (METAR) to Kalemie Airport

Closest report is Kigoma Airport, 64.5 nm (119.5 km) NNE. Retrieved 2020/04/05 02:00 UTC (24 minutes ago):

HTKA 050200Z 00000KT 9999 FEW018 FEW019CB BKN080 20/19 Q1014 BECMG -TSRA

Closest aviation forecast (TAF) to Kalemie Airport

Forecast is more than 12 hours old.

Closest forecast is Kigoma Airport, 64.5 nm (119.5 km) NNE. Retrieved 2020/04/03 06:36 UTC (2 days ago):

TAF HTKA 030500Z 0306/0406 12009KT 9999 SCT021 FEW022CB BKN100 TEMPO 0309/0312 -TSSH TEMPO 0313/0317 36007KT TEMPO 0319/0400 -TSRA SCT018 FEW019CB BKN080